Time;durP1;ratioP1;P1;durP2;ratioP2;P2;SDS_P1;SDS_P2;PMS_P1;PMS_P2;Temp;Humidity;BMP_temperature;BMP_pressure;BME280_temperature;BME280_humidity;BME280_pressure;Samples;Min_cycle;Max_cycle;Signal;HPM_P1;HPM_P2
2023/06/22 00:00:44;;;;;;;3.65;3.08;;;;;;;15.78;100.00;101826.94;5000659;28;20200;-51
2023/06/22 00:03:10;;;;;;;3.42;3.13;;;;;;;15.78;100.00;101826.94;4997843;28;20213;-51
2023/06/22 00:05:36;;;;;;;6.05;3.97;;;;;;;15.62;100.00;101826.69;5001907;28;20272;-50
2023/06/22 00:08:05;;;;;;;3.50;3.20;;;;;;;15.55;100.00;101838.72;4993438;28;20276;-51
2023/06/22 00:10:31;;;;;;;4.13;3.70;;;;;;;15.39;100.00;101825.88;4996950;28;20228;-52
2023/06/22 00:12:56;;;;;;;3.70;3.35;;;;;;;15.34;100.00;101825.16;5001098;28;20219;-51
2023/06/22 00:15:22;;;;;;;4.40;3.55;;;;;;;15.43;100.00;101835.56;5001218;28;20243;-51
2023/06/22 00:17:49;;;;;;;3.72;3.42;;;;;;;15.42;100.00;101824.84;4999479;28;20643;-53
2023/06/22 00:20:14;;;;;;;3.30;3.00;;;;;;;15.39;100.00;101830.38;5000711;28;20273;-53
2023/06/22 00:22:40;;;;;;;3.70;3.40;;;;;;;15.32;100.00;101828.88;5001761;28;20460;-53
2023/06/22 00:25:07;;;;;;;4.55;3.05;;;;;;;15.15;100.00;101822.38;5000958;28;20177;-53
2023/06/22 00:27:32;;;;;;;3.50;3.20;;;;;;;15.12;100.00;101832.41;4995284;28;20177;-53
2023/06/22 00:29:58;;;;;;;3.72;3.10;;;;;;;15.10;100.00;101828.91;4995152;28;20211;-52
2023/06/22 00:32:24;;;;;;;5.57;3.33;;;;;;;15.03;100.00;101828.28;5012619;28;20287;-51
2023/06/22 00:34:50;;;;;;;3.95;3.20;;;;;;;15.00;100.00;101828.41;4999651;28;20188;-52
2023/06/22 00:37:16;;;;;;;4.43;3.85;;;;;;;14.86;100.00;101833.47;4996888;28;20241;-51
2023/06/22 00:39:43;;;;;;;4.15;3.75;;;;;;;14.72;100.00;101844.81;4998143;28;20656;-51
2023/06/22 00:42:09;;;;;;;5.65;4.10;;;;;;;14.77;100.00;101837.41;5003771;28;20646;-53
2023/06/22 00:44:37;;;;;;;3.70;3.40;;;;;;;14.60;100.00;101836.25;5029501;28;20213;-52
2023/06/22 00:47:04;;;;;;;5.43;3.92;;;;;;;14.50;100.00;101837.53;4992727;28;20200;-53
2023/06/22 00:49:30;;;;;;;6.20;3.97;;;;;;;14.48;100.00;101841.22;5031213;28;20287;-53
2023/06/22 00:51:57;;;;;;;3.72;3.42;;;;;;;14.63;100.00;101846.94;4999485;28;20282;-53
2023/06/22 00:54:24;;;;;;;5.07;3.65;;;;;;;14.63;100.00;101843.34;5000988;28;20202;-54
2023/06/22 00:56:57;;;;;;;4.55;3.58;;;;;;;14.65;100.00;101860.38;4994107;28;20539;-52
2023/06/22 00:59:24;;;;;;;3.83;3.42;;;;;;;14.62;100.00;101857.78;5009706;28;20590;-53
2023/06/22 01:01:49;;;;;;;4.25;3.60;;;;;;;14.62;100.00;101860.47;5001338;28;20750;-51
2023/06/22 01:04:15;;;;;;;4.28;3.90;;;;;;;14.51;100.00;101857.28;5010040;28;20212;-51
2023/06/22 01:07:20;;;;;;;4.25;3.58;;;;;;;14.53;100.00;101861.66;5027652;28;20741;-52
2023/06/22 01:09:57;;;;;;;4.57;3.60;;;;;;;14.50;100.00;101861.78;4997554;28;20281;-53
2023/06/22 01:12:22;;;;;;;3.83;3.45;;;;;;;14.43;100.00;101863.84;4997455;28;20191;-52
2023/06/22 01:14:58;;;;;;;4.55;3.45;;;;;;;14.49;100.00;101864.53;4997379;28;20710;-52
2023/06/22 01:17:25;;;;;;;3.95;3.67;;;;;;;14.30;100.00;101867.94;5008742;28;20181;-53
2023/06/22 01:19:55;;;;;;;5.82;3.88;;;;;;;14.20;100.00;101867.38;4996203;28;20698;-54
2023/06/22 01:22:29;;;;;;;3.65;3.20;;;;;;;14.29;100.00;101858.06;4998365;28;20260;-52
2023/06/22 01:25:03;;;;;;;4.00;3.50;;;;;;;14.38;100.00;101859.56;4996217;28;20624;-52
2023/06/22 01:27:45;;;;;;;4.07;3.67;;;;;;;14.38;100.00;101868.50;4996203;28;20459;-52
2023/06/22 01:30:13;;;;;;;4.18;3.30;;;;;;;14.30;100.00;101873.34;4998222;28;20196;-52
2023/06/22 01:32:40;;;;;;;4.25;3.85;;;;;;;14.22;100.00;101860.13;5000273;28;20249;-51
2023/06/22 01:35:08;;;;;;;4.30;3.90;;;;;;;14.24;100.00;101856.50;4997611;28;20177;-54
2023/06/22 01:37:35;;;;;;;4.53;3.83;;;;;;;14.21;100.00;101861.06;4993778;28;20180;-54
2023/06/22 01:40:02;;;;;;;3.67;3.38;;;;;;;14.28;100.00;101859.03;4992983;28;20567;-53
2023/06/22 01:42:28;;;;;;;5.20;4.05;;;;;;;14.24;100.00;101852.00;4991927;28;20255;-54
2023/06/22 01:44:55;;;;;;;4.25;3.80;;;;;;;14.30;100.00;101854.47;4996164;28;20184;-51
2023/06/22 01:47:22;;;;;;;4.68;3.67;;;;;;;14.31;100.00;101848.13;4993654;28;20236;-53
2023/06/22 01:49:51;;;;;;;4.57;4.18;;;;;;;14.27;100.00;101853.69;4996474;28;20225;-52
2023/06/22 01:52:18;;;;;;;4.97;4.47;;;;;;;14.21;100.00;101844.00;4993740;28;20205;-53
2023/06/22 01:54:44;;;;;;;5.03;4.47;;;;;;;14.15;100.00;101838.88;4996002;28;20181;-53
2023/06/22 01:57:10;;;;;;;6.35;4.63;;;;;;;14.01;100.00;101842.94;4997325;28;20181;-53
2023/06/22 01:59:40;;;;;;;5.25;4.75;;;;;;;13.89;100.00;101848.75;5005786;28;20256;-52
2023/06/22 02:02:08;;;;;;;5.95;4.55;;;;;;;13.94;100.00;101845.91;5024481;28;20919;-51
2023/06/22 02:04:42;;;;;;;4.53;4.13;;;;;;;13.75;100.00;101861.81;4994242;28;20208;-52
2023/06/22 02:07:14;;;;;;;5.88;4.80;;;;;;;13.80;100.00;101859.88;4995820;28;20236;-52
2023/06/22 02:09:43;;;;;;;4.50;4.10;;;;;;;13.81;100.00;101853.53;4990310;28;20217;-52
2023/06/22 02:12:11;;;;;;;4.53;3.85;;;;;;;13.88;100.00;101857.75;4994063;28;20180;-55
2023/06/22 02:14:38;;;;;;;6.03;4.40;;;;;;;13.73;100.00;101848.44;5022955;28;20213;-52
2023/06/22 02:17:07;;;;;;;6.50;4.88;;;;;;;13.78;100.00;101861.75;5027399;28;20213;-51
2023/06/22 02:19:36;;;;;;;4.53;4.13;;;;;;;13.89;100.00;101869.44;4993126;28;20187;-52
2023/06/22 02:22:02;;;;;;;4.82;3.90;;;;;;;13.91;100.00;101871.16;5027866;28;20350;-52
2023/06/22 02:24:30;;;;;;;5.82;4.28;;;;;;;13.89;100.00;101875.72;4999480;28;20223;-52
2023/06/22 02:26:58;;;;;;;6.30;5.10;;;;;;;13.71;100.00;101871.84;4997947;28;20170;-50
2023/06/22 02:29:23;;;;;;;5.32;4.82;;;;;;;13.59;100.00;101872.25;4995294;28;20713;-51
2023/06/22 02:31:49;;;;;;;5.20;4.60;;;;;;;13.59;100.00;101864.19;5029305;28;20190;-50
2023/06/22 02:34:18;;;;;;;5.97;5.13;;;;;;;13.38;100.00;101868.47;4994838;28;20213;-50
2023/06/22 02:36:50;;;;;;;4.72;3.75;;;;;;;13.47;100.00;101873.56;5000432;28;20189;-46
2023/06/22 02:39:18;;;;;;;6.57;4.50;;;;;;;13.35;100.00;101869.44;5005323;28;20594;-47
2023/06/22 02:41:44;;;;;;;6.18;5.28;;;;;;;13.38;100.00;101866.69;5006540;28;20211;-47
2023/06/22 02:44:09;;;;;;;5.53;5.00;;;;;;;13.43;100.00;101871.91;5019252;28;20209;-46
2023/06/22 02:46:36;;;;;;;6.95;4.97;;;;;;;13.45;100.00;101880.81;4996646;28;20659;-46
2023/06/22 02:49:02;;;;;;;5.35;4.85;;;;;;;13.47;100.00;101878.03;5021597;28;20211;-46
2023/06/22 02:51:27;;;;;;;5.25;4.72;;;;;;;13.38;100.00;101879.22;5036110;28;20188;-46
2023/06/22 02:53:57;;;;;;;8.20;5.93;;;;;;;13.40;100.00;101871.97;5002585;28;20205;-48
2023/06/22 02:56:25;;;;;;;6.70;5.20;;;;;;;13.42;100.00;101877.34;5010614;28;20216;-42
2023/06/22 02:58:53;;;;;;;6.32;5.18;;;;;;;13.47;100.00;101861.88;4985727;28;20181;-45
2023/06/22 03:01:24;;;;;;;7.45;5.40;;;;;;;13.39;100.00;101870.25;5009345;28;20689;-46
2023/06/22 03:03:50;;;;;;;5.43;4.55;;;;;;;13.50;100.00;101861.81;5007599;28;20575;-45
2023/06/22 03:06:22;;;;;;;9.18;5.57;;;;;;;13.32;100.00;101855.22;5008560;28;20188;-45
2023/06/22 03:08:51;;;;;;;7.07;5.30;;;;;;;13.29;100.00;101858.88;5000596;28;20254;-44
2023/06/22 03:11:17;;;;;;;7.90;5.35;;;;;;;13.38;100.00;101863.06;5001812;28;20602;-45
2023/06/22 03:13:43;;;;;;;5.38;4.82;;;;;;;13.42;100.00;101871.94;5021662;28;20200;-46
2023/06/22 03:16:10;;;;;;;6.13;4.90;;;;;;;13.34;100.00;101867.72;5001512;28;20203;-45
2023/06/22 03:18:36;;;;;;;4.80;4.35;;;;;;;13.53;100.00;101867.94;5013704;28;20181;-45
2023/06/22 03:21:02;;;;;;;7.18;5.40;;;;;;;13.56;100.00;101867.84;4994135;28;20238;-46
2023/06/22 03:23:27;;;;;;;5.78;4.82;;;;;;;13.59;100.00;101874.94;5003263;28;20213;-46
2023/06/22 03:25:55;;;;;;;5.07;4.68;;;;;;;13.35;100.00;101879.34;5036536;28;20570;-44
2023/06/22 03:28:21;;;;;;;6.80;5.32;;;;;;;13.34;100.00;101872.22;5020349;28;20212;-44
2023/06/22 03:30:47;;;;;;;5.97;4.88;;;;;;;13.42;100.00;101870.13;5002107;28;20232;-45
2023/06/22 03:33:13;;;;;;;7.30;5.40;;;;;;;13.51;100.00;101867.16;5004149;28;20239;-46
2023/06/22 03:35:39;;;;;;;5.30;4.88;;;;;;;13.46;100.00;101861.03;5006653;28;20214;-45
2023/06/22 03:38:04;;;;;;;5.97;5.40;;;;;;;13.23;100.00;101875.22;5007977;28;20203;-47
2023/06/22 03:40:30;;;;;;;5.72;5.20;;;;;;;13.42;100.00;101877.34;5018544;28;20562;-47
2023/06/22 03:42:56;;;;;;;6.35;5.75;;;;;;;13.44;100.00;101870.97;5008317;28;20204;-50
2023/06/22 03:45:21;;;;;;;6.28;5.68;;;;;;;13.49;100.00;101870.81;5038591;28;20200;-46
2023/06/22 03:47:47;;;;;;;7.38;5.88;;;;;;;13.52;100.00;101874.28;5029440;22;20229;-43
2023/06/22 03:50:14;;;;;;;6.25;4.95;;;;;;;13.54;100.00;101876.94;4983523;28;20217;-43
2023/06/22 03:52:40;;;;;;;7.55;6.47;;;;;;;13.53;100.00;101875.16;4981330;28;20216;-43
2023/06/22 03:55:07;;;;;;;7.20;5.72;;;;;;;13.55;100.00;101881.38;4973352;28;20238;-41
2023/06/22 03:57:33;;;;;;;6.22;5.63;;;;;;;13.64;100.00;101872.97;4972615;28;20195;-43
2023/06/22 03:59:59;;;;;;;5.72;5.15;;;;;;;13.81;100.00;101875.97;4962964;28;20187;-43
2023/06/22 04:02:25;;;;;;;7.07;5.70;;;;;;;13.90;100.00;101884.66;4979280;28;20187;-42
2023/06/22 04:04:51;;;;;;;6.28;5.55;;;;;;;13.96;100.00;101885.31;4972161;28;20610;-43
2023/06/22 04:07:17;;;;;;;6.47;5.60;;;;;;;14.12;100.00;101892.84;4963680;28;20220;-42
2023/06/22 04:09:43;;;;;;;5.80;5.30;;;;;;;14.20;100.00;101885.38;4969501;28;20673;-41
2023/06/22 04:12:09;;;;;;;6.38;5.78;;;;;;;14.25;100.00;101891.47;4968278;28;20381;-43
2023/06/22 04:14:34;;;;;;;6.60;5.43;;;;;;;14.15;100.00;101898.16;4975031;28;20243;-43
2023/06/22 04:17:01;;;;;;;7.20;6.10;;;;;;;14.21;100.00;101906.00;4966380;28;20213;-43
2023/06/22 04:19:27;;;;;;;6.88;5.20;;;;;;;14.30;100.00;101905.69;4965466;28;20221;-45
2023/06/22 04:21:52;;;;;;;5.70;5.20;;;;;;;14.37;100.00;101906.34;4974360;28;20183;-40
2023/06/22 04:24:18;;;;;;;8.82;6.05;;;;;;;14.37;100.00;101907.22;4966292;28;20314;-42
2023/06/22 04:26:45;;;;;;;6.43;5.78;;;;;;;14.28;100.00;101904.84;4975137;28;20206;-45
2023/06/22 04:29:11;;;;;;;7.55;5.63;;;;;;;14.21;100.00;101911.38;4969233;28;20261;-41
2023/06/22 04:31:37;;;;;;;7.65;6.15;;;;;;;14.32;100.00;101906.50;4967560;28;20208;-41
2023/06/22 04:34:07;;;;;;;8.68;6.82;;;;;;;14.43;100.00;101903.41;4970987;28;20748;-44
2023/06/22 04:36:40;;;;;;;7.63;6.57;;;;;;;14.59;100.00;101911.84;4972793;28;20188;-42
2023/06/22 04:39:11;;;;;;;7.43;6.35;;;;;;;14.58;100.00;101908.28;4963815;28;20247;-44
2023/06/22 04:41:46;;;;;;;7.03;6.30;;;;;;;14.61;100.00;101912.66;4970202;28;20327;-44
2023/06/22 04:44:26;;;;;;;6.53;5.68;;;;;;;14.72;100.00;101901.47;4970352;28;20208;-44
2023/06/22 04:47:03;;;;;;;7.35;5.63;;;;;;;14.89;100.00;101911.59;4970402;28;20201;-43
2023/06/22 04:49:33;;;;;;;7.75;6.25;;;;;;;14.98;100.00;101903.16;4963603;28;20218;-44
2023/06/22 04:52:00;;;;;;;10.82;6.55;;;;;;;15.07;100.00;101904.59;4960686;28;20190;-44
2023/06/22 04:54:25;;;;;;;6.30;5.63;;;;;;;15.28;100.00;101898.31;4960823;28;20631;-44
2023/06/22 04:56:56;;;;;;;7.13;6.38;;;;;;;15.43;100.00;101911.19;4964023;28;20190;-43
2023/06/22 04:59:29;;;;;;;8.75;7.85;;;;;;;15.54;100.00;101910.75;4970217;28;20255;-43
2023/06/22 05:02:00;;;;;;;11.80;10.60;;;;;;;15.57;100.00;101905.22;4966802;28;20273;-45
2023/06/22 05:04:27;;;;;;;14.13;11.07;;;;;;;15.66;100.00;101907.53;4966793;28;20248;-44
2023/06/22 05:06:54;;;;;;;11.98;10.32;;;;;;;15.87;100.00;101896.78;4960634;28;20182;-44
2023/06/22 05:09:21;;;;;;;11.18;9.43;;;;;;;16.02;100.00;101901.50;4966784;28;20224;-44
2023/06/22 05:11:47;;;;;;;13.68;12.15;;;;;;;16.05;100.00;101901.41;4982633;28;20190;-44
2023/06/22 05:14:13;;;;;;;13.35;11.77;;;;;;;16.03;100.00;101906.00;4966794;28;20224;-45
2023/06/22 05:16:40;;;;;;;13.02;11.13;;;;;;;16.17;100.00;101899.97;4974034;28;20262;-44
2023/06/22 05:19:06;;;;;;;10.40;9.15;;;;;;;16.31;100.00;101895.75;4968149;28;20643;-43
2023/06/22 05:21:31;;;;;;;13.05;9.73;;;;;;;16.41;100.00;101899.81;4975151;28;20224;-44
2023/06/22 05:24:00;;;;;;;10.77;9.57;;;;;;;16.36;100.00;101904.56;4965466;28;20293;-42
2023/06/22 05:26:30;;;;;;;9.20;8.13;;;;;;;16.53;100.00;101901.06;4968604;28;20229;-44
2023/06/22 05:28:55;;;;;;;10.90;8.50;;;;;;;16.67;100.00;101904.91;4958463;28;20218;-45
2023/06/22 05:31:21;;;;;;;10.30;8.15;;;;;;;16.78;100.00;101909.81;4972803;28;20242;-43
2023/06/22 05:33:48;;;;;;;9.75;7.43;;;;;;;16.76;100.00;101914.41;4973642;28;20633;-42
2023/06/22 05:36:15;;;;;;;9.13;8.15;;;;;;;16.82;100.00;101908.75;4964706;28;20182;-44
2023/06/22 05:38:41;;;;;;;9.65;8.55;;;;;;;16.91;100.00;101904.72;4964283;28;20663;-44
2023/06/22 05:41:07;;;;;;;8.73;7.32;;;;;;;16.98;100.00;101899.91;4973934;28;20174;-45
2023/06/22 05:43:33;;;;;;;8.32;7.00;;;;;;;17.05;100.00;101894.13;4972838;28;20210;-44
2023/06/22 05:46:00;;;;;;;10.55;7.00;;;;;;;17.12;100.00;101894.72;4969224;28;20194;-45
2023/06/22 05:48:26;;;;;;;6.85;5.45;;;;;;;17.23;100.00;101897.75;4964633;28;20649;-44
2023/06/22 05:50:52;;;;;;;6.10;5.50;;;;;;;17.42;100.00;101902.25;4958250;28;20215;-43
2023/06/22 05:53:17;;;;;;;8.18;6.57;;;;;;;17.39;100.00;101895.16;4967777;28;20210;-46
2023/06/22 05:55:43;;;;;;;7.50;5.47;;;;;;;17.46;100.00;101902.03;4964950;28;20186;-45
2023/06/22 05:58:08;;;;;;;7.10;5.38;;;;;;;17.57;100.00;101900.63;4967586;28;20253;-43
2023/06/22 06:00:34;;;;;;;9.02;5.80;;;;;;;17.68;100.00;101906.38;4976458;28;20209;-41
2023/06/22 06:03:03;;;;;;;8.05;4.50;;;;;;;17.77;100.00;101902.31;4961290;28;20273;-44
2023/06/22 06:05:33;;;;;;;6.85;4.90;;;;;;;17.81;100.00;101912.03;4971296;28;20664;-41
2023/06/22 06:08:00;;;;;;;5.68;4.45;;;;;;;17.81;100.00;101909.31;4975336;28;20519;-42
2023/06/22 06:10:26;;;;;;;5.43;3.90;;;;;;;18.01;100.00;101903.78;4968893;28;20205;-45
2023/06/22 06:12:52;;;;;;;7.22;3.95;;;;;;;17.76;100.00;101898.72;4966961;28;20210;-45
2023/06/22 06:15:18;;;;;;;8.27;4.43;;;;;;;17.79;100.00;101897.69;4968550;28;20186;-44
2023/06/22 06:18:04;;;;;;;7.35;4.07;;;;;;;18.04;99.50;101891.91;4967761;28;20204;-43
2023/06/22 06:20:30;;;;;;;6.55;3.72;;;;;;;17.82;97.80;101890.31;4954033;28;20193;-43
2023/06/22 06:22:56;;;;;;;4.10;3.63;;;;;;;18.02;96.86;101891.97;4964366;28;20284;-43
2023/06/22 06:25:22;;;;;;;4.50;4.03;;;;;;;18.10;95.21;101883.41;4964934;28;20221;-45
2023/06/22 06:27:49;;;;;;;6.75;3.58;;;;;;;18.69;93.88;101882.03;4970866;28;20247;-41
2023/06/22 06:30:17;;;;;;;4.57;3.28;;;;;;;18.57;92.30;101862.84;4977337;28;20236;-43
2023/06/22 06:32:45;;;;;;;5.93;3.92;;;;;;;18.71;91.59;101863.78;4981163;28;20573;-42
2023/06/22 06:35:12;;;;;;;4.80;3.83;;;;;;;19.17;91.40;101863.06;4963765;28;20182;-41
2023/06/22 06:37:42;;;;;;;3.60;3.30;;;;;;;19.32;89.74;101854.00;4970389;28;20178;-42
2023/06/22 06:40:12;;;;;;;5.05;3.53;;;;;;;19.92;88.46;101855.03;4960884;28;20667;-43
2023/06/22 06:42:45;;;;;;;5.13;3.70;;;;;;;19.83;86.31;101864.63;4977637;28;20291;-44
2023/06/22 06:45:23;;;;;;;7.82;3.70;;;;;;;19.42;84.46;101858.91;4968381;28;20516;-43
2023/06/22 06:47:52;;;;;;;4.25;2.97;;;;;;;20.24;83.75;101860.31;4969096;28;20236;-42
2023/06/22 06:50:18;;;;;;;3.92;3.20;;;;;;;20.01;81.08;101853.59;4976662;28;20348;-42
2023/06/22 06:52:44;;;;;;;4.88;3.13;;;;;;;19.57;79.85;101852.56;4971045;28;20300;-42
2023/06/22 06:55:11;;;;;;;6.30;3.22;;;;;;;20.30;78.85;101852.63;4969722;28;20192;-43
2023/06/22 06:57:41;;;;;;;2.88;2.50;;;;;;;20.07;76.59;101839.59;4965671;28;20197;-43
2023/06/22 07:00:11;;;;;;;2.90;2.40;;;;;;;19.93;75.39;101835.88;4966018;28;20183;-42
2023/06/22 07:02:41;;;;;;;3.13;2.40;;;;;;;20.54;74.89;101828.41;4967633;28;20184;-43
2023/06/22 07:05:07;;;;;;;7.10;3.42;;;;;;;20.22;73.15;101818.72;4973365;28;20182;-40
2023/06/22 07:07:33;;;;;;;5.05;2.90;;;;;;;20.31;74.31;101839.91;4972140;28;20546;-42
2023/06/22 07:09:59;;;;;;;4.97;2.67;;;;;;;20.09;73.67;101846.69;4970514;28;20206;-41
2023/06/22 07:12:24;;;;;;;2.63;2.40;;;;;;;21.12;74.18;101840.13;4970672;28;20190;-42
2023/06/22 07:14:52;;;;;;;1.83;1.73;;;;;;;20.73;70.99;101814.53;4974636;28;20192;-42
2023/06/22 07:17:18;;;;;;;5.57;2.42;;;;;;;20.29;70.70;101815.53;4976809;28;20288;-43
2023/06/22 07:19:43;;;;;;;3.05;2.30;;;;;;;20.74;71.39;101823.56;4971241;28;20186;-43
2023/06/22 07:22:09;;;;;;;2.30;2.05;;;;;;;21.48;69.89;101816.81;4971146;28;20929;-42
2023/06/22 07:24:35;;;;;;;3.17;2.40;;;;;;;21.21;68.87;101805.94;4972738;28;20398;-43
2023/06/22 07:27:02;;;;;;;3.55;2.10;;;;;;;20.96;67.12;101802.09;4963380;28;20179;-42
2023/06/22 07:29:27;;;;;;;2.08;1.95;;;;;;;21.38;67.70;101815.66;4963181;28;20207;-43
2023/06/22 07:31:56;;;;;;;3.83;2.30;;;;;;;22.01;67.63;101812.19;4964892;28;20187;-43
2023/06/22 07:34:21;;;;;;;2.20;2.00;;;;;;;22.48;66.57;101801.59;4977827;28;20624;-44
2023/06/22 07:36:47;;;;;;;2.42;2.00;;;;;;;22.87;64.40;101788.72;4969476;28;20195;-44
2023/06/22 07:39:12;;;;;;;4.57;2.83;;;;;;;21.93;66.27;101794.63;4970853;28;20225;-44
2023/06/22 07:41:40;;;;;;;3.13;2.75;;;;;;;21.77;69.80;101822.97;4978949;28;20189;-44
2023/06/22 07:44:06;;;;;;;3.28;2.33;;;;;;;21.80;70.08;101819.19;4971643;28;20277;-44
2023/06/22 07:46:32;;;;;;;2.88;2.30;;;;;;;21.11;68.07;101812.97;4973023;28;20293;-43
2023/06/22 07:48:59;;;;;;;3.80;2.40;;;;;;;22.12;66.44;101808.69;4973597;28;20201;-42
2023/06/22 07:51:25;;;;;;;3.30;2.40;;;;;;;21.93;65.09;101797.34;4967484;28;20204;-43
2023/06/22 07:53:51;;;;;;;3.08;2.45;;;;;;;21.81;65.62;101805.41;4975271;28;20667;-44
2023/06/22 07:56:20;;;;;;;2.55;2.17;;;;;;;22.10;66.11;101809.78;4966106;28;20201;-40
2023/06/22 07:58:46;;;;;;;3.58;2.58;;;;;;;21.58;64.55;101803.41;4961448;28;20213;-41
2023/06/22 08:01:12;;;;;;;4.28;2.58;;;;;;;21.70;65.54;101808.03;4964885;28;20182;-42
2023/06/22 08:03:39;;;;;;;3.83;2.67;;;;;;;21.76;65.68;101806.75;4972136;28;20209;-41
2023/06/22 08:06:08;;;;;;;2.67;2.47;;;;;;;21.55;66.74;101820.00;4966323;28;20174;-40
2023/06/22 08:08:33;;;;;;;2.70;2.25;;;;;;;22.15;68.58;101834.91;4969111;28;20572;-41
2023/06/22 08:10:59;;;;;;;3.30;2.15;;;;;;;21.94;68.94;101838.16;4968867;28;20204;-39
2023/06/22 08:13:25;;;;;;;2.50;2.30;;;;;;;22.43;68.46;101833.81;4969637;28;20203;-42
2023/06/22 08:15:50;;;;;;;2.80;2.38;;;;;;;22.35;68.13;101828.06;4970517;28;20271;-41
2023/06/22 08:18:16;;;;;;;5.28;2.67;;;;;;;22.27;69.18;101833.19;4967168;28;20283;-42
2023/06/22 08:20:42;;;;;;;3.95;2.85;;;;;;;21.52;69.05;101828.41;4966988;28;20184;-39
2023/06/22 08:23:07;;;;;;;4.05;2.72;;;;;;;21.70;70.23;101840.75;4969786;28;20410;-40
2023/06/22 08:25:34;;;;;;;3.88;2.60;;;;;;;21.60;69.80;101842.38;4961158;28;20375;-43
2023/06/22 08:28:00;;;;;;;3.80;2.53;;;;;;;21.74;70.43;101846.88;4983353;28;20184;-46
2023/06/22 08:30:26;;;;;;;2.85;2.30;;;;;;;21.34;71.00;101850.47;4965075;28;20209;-44
2023/06/22 08:32:51;;;;;;;3.38;2.42;;;;;;;21.70;70.50;101842.63;4968478;28;20200;-46
2023/06/22 08:35:17;;;;;;;4.28;2.75;;;;;;;21.54;71.39;101840.09;4973853;28;20189;-46
2023/06/22 08:37:42;;;;;;;4.13;2.67;;;;;;;21.35;71.81;101854.03;4966374;28;20269;-44
2023/06/22 08:40:10;;;;;;;2.88;2.53;;;;;;;21.46;70.75;101850.63;4971071;28;20656;-45
2023/06/22 08:42:41;;;;;;;3.63;2.78;;;;;;;21.28;71.46;101850.88;4969516;28;20346;-46
2023/06/22 08:45:07;;;;;;;4.90;2.95;;;;;;;21.52;71.12;101853.81;4966515;28;20332;-46
2023/06/22 08:47:33;;;;;;;3.95;2.65;;;;;;;21.55;71.20;101847.28;4962052;28;20659;-44
2023/06/22 08:49:58;;;;;;;4.68;2.92;;;;;;;21.68;71.54;101844.56;4968845;28;20728;-46
2023/06/22 08:52:24;;;;;;;3.08;2.72;;;;;;;22.12;70.02;101836.00;4969849;28;20182;-47
2023/06/22 08:54:50;;;;;;;3.40;2.67;;;;;;;22.16;68.50;101826.59;4972686;28;20564;-45
2023/06/22 08:57:16;;;;;;;3.13;2.60;;;;;;;22.01;67.67;101812.19;4975087;28;20228;-44
2023/06/22 08:59:42;;;;;;;5.85;3.00;;;;;;;22.27;67.77;101812.22;4967961;28;20763;-45
2023/06/22 09:02:07;;;;;;;3.28;2.70;;;;;;;22.25;68.95;101824.25;4970233;28;20199;-47
2023/06/22 09:04:36;;;;;;;3.33;2.92;;;;;;;22.13;70.93;101832.28;4960971;28;20201;-47
2023/06/22 09:07:02;;;;;;;3.47;2.45;;;;;;;21.97;69.30;101823.44;4962454;28;20217;-47
2023/06/22 09:09:28;;;;;;;4.00;2.45;;;;;;;22.50;68.90;101824.22;4970598;28;20272;-46
2023/06/22 09:11:53;;;;;;;3.80;2.47;;;;;;;22.41;68.23;101816.66;4971635;28;20181;-44
2023/06/22 09:14:19;;;;;;;5.78;3.05;;;;;;;22.52;67.21;101815.91;4963177;28;20232;-44
2023/06/22 09:16:44;;;;;;;4.72;2.55;;;;;;;22.72;66.87;101806.22;4963947;28;20197;-47
2023/06/22 09:19:10;;;;;;;4.13;2.95;;;;;;;22.72;68.01;101793.47;4971674;28;20260;-46
2023/06/22 09:21:36;;;;;;;6.15;3.13;;;;;;;22.44;68.89;101815.59;4964965;28;20197;-47
2023/06/22 09:24:02;;;;;;;3.17;2.58;;;;;;;22.63;69.12;101819.59;4969442;28;20219;-44
2023/06/22 09:26:28;;;;;;;5.40;2.75;;;;;;;22.44;67.67;101799.22;4967158;28;20670;-46
2023/06/22 09:28:53;;;;;;;2.67;2.45;;;;;;;22.47;67.38;101805.31;4962360;28;20186;-46
2023/06/22 09:31:25;;;;;;;3.17;2.13;;;;;;;22.60;67.14;101795.22;4964937;28;20243;-46
2023/06/22 09:33:52;;;;;;;3.60;2.20;;;;;;;22.54;67.12;101794.81;4964146;28;20713;-45
2023/06/22 09:36:18;;;;;;;2.60;2.33;;;;;;;22.56;66.29;101790.09;4969377;28;20186;-47
2023/06/22 09:38:43;;;;;;;4.13;2.38;;;;;;;22.83;64.45;101770.81;4961445;28;20265;-46
2023/06/22 09:41:09;;;;;;;3.67;2.17;;;;;;;22.80;63.07;101762.81;4962840;28;20680;-45
2023/06/22 09:43:36;;;;;;;2.58;2.05;;;;;;;22.74;63.38;101772.38;4972089;28;20220;-46
2023/06/22 09:46:02;;;;;;;3.35;2.30;;;;;;;22.68;64.43;101782.88;4974999;28;20184;-45
2023/06/22 09:48:30;;;;;;;3.53;2.50;;;;;;;22.74;65.50;101788.75;4959274;28;20589;-45
2023/06/22 09:50:55;;;;;;;2.90;2.47;;;;;;;22.57;65.81;101787.28;4975771;28;20365;-45
2023/06/22 09:53:21;;;;;;;4.30;2.40;;;;;;;22.25;65.01;101789.63;4972899;28;20201;-46
2023/06/22 09:55:47;;;;;;;2.92;2.08;;;;;;;22.52;65.33;101791.31;4968590;28;20193;-44
2023/06/22 09:58:12;;;;;;;4.07;2.10;;;;;;;22.61;65.44;101794.25;4967954;28;20324;-46
2023/06/22 10:00:38;;;;;;;3.15;2.25;;;;;;;22.62;65.07;101795.13;4963590;28;20213;-44
2023/06/22 10:03:03;;;;;;;3.33;2.20;;;;;;;22.73;64.45;101772.47;4970325;28;20239;-46
2023/06/22 10:05:29;;;;;;;3.63;2.20;;;;;;;22.80;63.90;101768.28;4972027;28;20192;-44
2023/06/22 10:07:54;;;;;;;2.45;2.10;;;;;;;22.65;64.87;101770.28;4970412;28;20188;-43
2023/06/22 10:10:20;;;;;;;3.15;2.10;;;;;;;22.59;66.27;101789.91;4969509;28;20213;-45
2023/06/22 10:12:55;;;;;;;2.35;2.15;;;;;;;22.43;66.05;101781.94;4970240;28;20216;-45
2023/06/22 10:15:21;;;;;;;2.65;1.90;;;;;;;22.82;65.73;101779.97;4968421;28;20240;-46
2023/06/22 10:17:47;;;;;;;2.33;2.13;;;;;;;22.50;64.49;101769.59;4968268;28;20190;-46
2023/06/22 10:20:13;;;;;;;2.65;2.10;;;;;;;22.76;64.08;101772.22;4965192;28;20185;-47
2023/06/22 10:22:42;;;;;;;2.28;2.08;;;;;;;22.73;63.66;101758.81;4970959;28;20608;-46
2023/06/22 10:25:09;;;;;;;2.33;2.13;;;;;;;22.48;64.12;101765.22;4969570;28;20185;-46
2023/06/22 10:27:35;;;;;;;2.85;2.03;;;;;;;22.35;64.69;101759.81;4967292;28;20186;-45
2023/06/22 10:30:01;;;;;;;2.85;2.08;;;;;;;22.68;63.95;101755.56;4963806;28;20233;-46
2023/06/22 10:32:28;;;;;;;6.72;2.72;;;;;;;22.78;64.02;101762.97;4956277;28;20186;-46
2023/06/22 10:34:54;;;;;;;3.63;2.45;;;;;;;22.53;63.73;101752.97;4966926;28;20268;-45
2023/06/22 10:37:20;;;;;;;2.42;2.10;;;;;;;23.00;62.09;101740.38;4964487;28;20273;-44
2023/06/22 10:39:45;;;;;;;5.45;2.45;;;;;;;22.66;64.04;101754.81;4965932;28;20237;-46
2023/06/22 10:42:12;;;;;;;2.42;2.10;;;;;;;22.90;63.10;101755.69;4971367;28;20189;-45
2023/06/22 10:44:38;;;;;;;2.83;2.35;;;;;;;22.79;62.73;101748.28;4962421;28;20201;-44
2023/06/22 10:47:04;;;;;;;4.80;2.17;;;;;;;22.60;63.45;101740.59;4964216;28;20190;-46
2023/06/22 10:49:30;;;;;;;6.70;1.85;;;;;;;22.63;63.32;101744.97;4968338;28;20182;-45
2023/06/22 10:51:55;;;;;;;2.03;1.80;;;;;;;22.68;62.95;101741.91;4968952;28;20208;-45
2023/06/22 10:54:21;;;;;;;3.72;2.17;;;;;;;22.51;63.99;101743.16;4958871;28;20220;-46
2023/06/22 10:56:46;;;;;;;1.80;1.70;;;;;;;22.59;62.49;101738.00;4964257;28;20191;-47
2023/06/22 10:59:12;;;;;;;2.17;1.75;;;;;;;22.39;62.00;101731.25;4974142;28;20204;-46
2023/06/22 11:01:37;;;;;;;2.58;1.92;;;;;;;22.62;62.05;101733.16;4966459;28;20632;-47
2023/06/22 11:04:04;;;;;;;2.65;1.60;;;;;;;22.36;62.39;101718.72;4973176;28;20200;-46
2023/06/22 11:06:29;;;;;;;2.00;1.70;;;;;;;22.29;60.97;101705.66;4973470;28;20642;-46
2023/06/22 11:08:55;;;;;;;2.20;1.77;;;;;;;22.50;61.24;101711.34;4968974;28;20185;-44
2023/06/22 11:11:20;;;;;;;2.13;1.70;;;;;;;22.80;60.53;101706.31;4966803;28;20205;-43
2023/06/22 11:13:46;;;;;;;5.50;1.73;;;;;;;23.47;59.07;101704.84;4970468;28;20716;-43
2023/06/22 11:16:11;;;;;;;6.53;1.83;;;;;;;22.95;58.93;101682.41;4972949;28;20186;-46
2023/06/22 11:18:37;;;;;;;2.47;1.67;;;;;;;22.82;58.89;101696.13;4968512;28;20232;-43